sensor_id;sensor_type;location;lat;lon;timestamp;pressure;altitude;pressure_sealevel;temperature;humidity
45813;BME280;31519;45.408;10.962;2023-06-22T00:01:04;100955.38;;;30.91;45.30
45813;BME280;31519;45.408;10.962;2023-06-22T00:03:32;100961.44;;;31.02;45.06
45813;BME280;31519;45.408;10.962;2023-06-22T00:06:00;100960.22;;;30.87;45.25
45813;BME280;31519;45.408;10.962;2023-06-22T00:08:29;100961.69;;;30.75;45.54
45813;BME280;31519;45.408;10.962;2023-06-22T00:10:57;100961.84;;;30.68;46.07
45813;BME280;31519;45.408;10.962;2023-06-22T00:13:25;100967.19;;;30.75;46.01
45813;BME280;31519;45.408;10.962;2023-06-22T00:15:53;100975.63;;;30.52;45.93
45813;BME280;31519;45.408;10.962;2023-06-22T00:18:21;100972.53;;;29.74;48.17
45813;BME280;31519;45.408;10.962;2023-06-22T00:20:49;100964.47;;;30.39;47.24
45813;BME280;31519;45.408;10.962;2023-06-22T00:23:18;100969.75;;;30.50;47.05
45813;BME280;31519;45.408;10.962;2023-06-22T00:25:46;100977.91;;;30.01;48.41
45813;BME280;31519;45.408;10.962;2023-06-22T00:28:15;100970.47;;;29.98;48.27
45813;BME280;31519;45.408;10.962;2023-06-22T00:30:43;100970.66;;;30.27;47.78
45813;BME280;31519;45.408;10.962;2023-06-22T00:33:11;100963.09;;;29.95;48.00
45813;BME280;31519;45.408;10.962;2023-06-22T00:35:40;100961.22;;;29.92;48.86
45813;BME280;31519;45.408;10.962;2023-06-22T00:38:10;100954.97;;;30.08;47.89
45813;BME280;31519;45.408;10.962;2023-06-22T00:40:38;100955.19;;;30.33;47.85
45813;BME280;31519;45.408;10.962;2023-06-22T00:43:06;100952.50;;;30.65;47.58
45813;BME280;31519;45.408;10.962;2023-06-22T00:45:35;100949.56;;;30.56;46.90
45813;BME280;31519;45.408;10.962;2023-06-22T00:48:04;100945.66;;;30.37;46.97
45813;BME280;31519;45.408;10.962;2023-06-22T00:50:34;100944.34;;;30.26;46.93
45813;BME280;31519;45.408;10.962;2023-06-22T00:53:08;100941.69;;;30.22;46.38
45813;BME280;31519;45.408;10.962;2023-06-22T00:55:42;100942.69;;;30.64;44.97
45813;BME280;31519;45.408;10.962;2023-06-22T00:58:15;100946.72;;;30.08;46.54
45813;BME280;31519;45.408;10.962;2023-06-22T01:00:43;100940.03;;;30.09;46.66
45813;BME280;31519;45.408;10.962;2023-06-22T01:03:12;100942.59;;;30.00;46.61
45813;BME280;31519;45.408;10.962;2023-06-22T01:05:40;100945.09;;;29.74;48.98
45813;BME280;31519;45.408;10.962;2023-06-22T01:08:31;100943.50;;;29.93;47.41
45813;BME280;31519;45.408;10.962;2023-06-22T01:11:11;100945.88;;;30.47;46.68
45813;BME280;31519;45.408;10.962;2023-06-22T01:16:24;100938.66;;;29.61;49.38
45813;BME280;31519;45.408;10.962;2023-06-22T01:18:57;100944.63;;;29.56;49.41
45813;BME280;31519;45.408;10.962;2023-06-22T01:21:30;100940.91;;;29.66;49.75
45813;BME280;31519;45.408;10.962;2023-06-22T01:29:31;100936.19;;;29.47;49.68
45813;BME280;31519;45.408;10.962;2023-06-22T01:32:02;100945.22;;;29.24;50.52
45813;BME280;31519;45.408;10.962;2023-06-22T01:34:37;100952.38;;;29.61;49.72
45813;BME280;31519;45.408;10.962;2023-06-22T01:37:08;100949.16;;;29.66;49.27
45813;BME280;31519;45.408;10.962;2023-06-22T01:39:37;100946.47;;;29.82;49.12
45813;BME280;31519;45.408;10.962;2023-06-22T01:42:05;100949.44;;;29.91;48.85
45813;BME280;31519;45.408;10.962;2023-06-22T01:44:34;100957.66;;;29.52;50.23
45813;BME280;31519;45.408;10.962;2023-06-22T01:47:03;100952.03;;;29.79;49.41
45813;BME280;31519;45.408;10.962;2023-06-22T01:49:32;100957.78;;;29.88;48.87
45813;BME280;31519;45.408;10.962;2023-06-22T01:52:01;100951.13;;;30.05;48.41
45813;BME280;31519;45.408;10.962;2023-06-22T01:54:29;100952.72;;;30.03;48.65
45813;BME280;31519;45.408;10.962;2023-06-22T01:56:57;100947.19;;;30.22;47.70
45813;BME280;31519;45.408;10.962;2023-06-22T01:59:36;100950.72;;;30.23;47.57
45813;BME280;31519;45.408;10.962;2023-06-22T02:02:09;100952.09;;;30.15;47.82
45813;BME280;31519;45.408;10.962;2023-06-22T02:04:48;100952.41;;;30.17;47.41
45813;BME280;31519;45.408;10.962;2023-06-22T02:07:20;100952.81;;;29.99;47.52
45813;BME280;31519;45.408;10.962;2023-06-22T02:09:52;100957.19;;;29.97;48.25
45813;BME280;31519;45.408;10.962;2023-06-22T02:12:25;100948.84;;;29.80;48.20
45813;BME280;31519;45.408;10.962;2023-06-22T02:14:56;100959.56;;;29.75;48.73
45813;BME280;31519;45.408;10.962;2023-06-22T02:17:25;100958.81;;;29.94;48.42
45813;BME280;31519;45.408;10.962;2023-06-22T02:19:54;100960.13;;;29.86;48.11
45813;BME280;31519;45.408;10.962;2023-06-22T02:22:23;100968.31;;;29.70;48.42
45813;BME280;31519;45.408;10.962;2023-06-22T02:24:51;100964.00;;;29.88;48.55
45813;BME280;31519;45.408;10.962;2023-06-22T02:27:20;100968.59;;;29.56;49.29
45813;BME280;31519;45.408;10.962;2023-06-22T02:29:49;100965.41;;;29.37;49.79
45813;BME280;31519;45.408;10.962;2023-06-22T02:32:17;100965.28;;;29.44;49.34
45813;BME280;31519;45.408;10.962;2023-06-22T02:34:47;100959.09;;;29.60;49.08
45813;BME280;31519;45.408;10.962;2023-06-22T02:37:16;100964.16;;;29.42;49.97
45813;BME280;31519;45.408;10.962;2023-06-22T02:39:45;100962.91;;;29.46;49.55
45813;BME280;31519;45.408;10.962;2023-06-22T02:42:13;100969.06;;;29.31;50.08
45813;BME280;31519;45.408;10.962;2023-06-22T02:44:42;100962.38;;;28.85;51.30
45813;BME280;31519;45.408;10.962;2023-06-22T02:47:12;100973.41;;;28.82;50.70
45813;BME280;31519;45.408;10.962;2023-06-22T02:49:41;100963.97;;;28.83;50.71
45813;BME280;31519;45.408;10.962;2023-06-22T02:52:10;100963.09;;;29.13;49.88
45813;BME280;31519;45.408;10.962;2023-06-22T02:54:39;100975.88;;;28.99;49.77
45813;BME280;31519;45.408;10.962;2023-06-22T02:57:07;100978.13;;;29.28;49.01
45813;BME280;31519;45.408;10.962;2023-06-22T02:59:43;100975.19;;;29.38;48.71
45813;BME280;31519;45.408;10.962;2023-06-22T03:02:12;100971.47;;;29.25;49.71
45813;BME280;31519;45.408;10.962;2023-06-22T03:04:42;100971.47;;;29.05;49.95
45813;BME280;31519;45.408;10.962;2023-06-22T03:07:11;100973.47;;;29.01;50.17
45813;BME280;31519;45.408;10.962;2023-06-22T03:09:39;100972.28;;;29.02;50.33
45813;BME280;31519;45.408;10.962;2023-06-22T03:12:09;100973.53;;;28.98;50.65
45813;BME280;31519;45.408;10.962;2023-06-22T03:14:53;100978.13;;;29.04;50.29
45813;BME280;31519;45.408;10.962;2023-06-22T03:17:20;100969.16;;;29.24;50.03
45813;BME280;31519;45.408;10.962;2023-06-22T03:19:49;100975.63;;;29.14;50.67
45813;BME280;31519;45.408;10.962;2023-06-22T03:22:17;100975.84;;;29.23;50.29
45813;BME280;31519;45.408;10.962;2023-06-22T03:24:45;100985.56;;;29.50;49.55
45813;BME280;31519;45.408;10.962;2023-06-22T03:27:13;100974.28;;;29.45;49.92
45813;BME280;31519;45.408;10.962;2023-06-22T03:29:41;100975.84;;;29.46;49.20
45813;BME280;31519;45.408;10.962;2023-06-22T03:32:09;100970.84;;;29.41;49.43
45813;BME280;31519;45.408;10.962;2023-06-22T03:34:38;100970.84;;;29.18;50.64
45813;BME280;31519;45.408;10.962;2023-06-22T03:37:06;100975.75;;;29.30;50.35
45813;BME280;31519;45.408;10.962;2023-06-22T03:39:34;100967.72;;;29.16;50.96
45813;BME280;31519;45.408;10.962;2023-06-22T03:42:03;100973.66;;;29.14;50.60
45813;BME280;31519;45.408;10.962;2023-06-22T03:44:32;100973.69;;;29.11;51.08
45813;BME280;31519;45.408;10.962;2023-06-22T03:47:00;100972.63;;;29.28;50.75
45813;BME280;31519;45.408;10.962;2023-06-22T03:49:30;100981.03;;;29.40;49.77
45813;BME280;31519;45.408;10.962;2023-06-22T03:51:58;100975.88;;;29.42;50.21
45813;BME280;31519;45.408;10.962;2023-06-22T03:54:26;100978.91;;;29.48;50.06
45813;BME280;31519;45.408;10.962;2023-06-22T03:56:57;100967.78;;;29.35;50.00
45813;BME280;31519;45.408;10.962;2023-06-22T03:59:26;100968.59;;;29.56;49.61
45813;BME280;31519;45.408;10.962;2023-06-22T04:01:54;100970.34;;;29.46;50.23
45813;BME280;31519;45.408;10.962;2023-06-22T04:04:22;100968.28;;;29.30;50.26
45813;BME280;31519;45.408;10.962;2023-06-22T04:06:51;100976.75;;;29.16;50.81
45813;BME280;31519;45.408;10.962;2023-06-22T04:09:19;100968.31;;;29.27;51.00
45813;BME280;31519;45.408;10.962;2023-06-22T04:11:49;100978.28;;;29.40;50.35
45813;BME280;31519;45.408;10.962;2023-06-22T04:14:17;100973.78;;;29.30;50.86
45813;BME280;31519;45.408;10.962;2023-06-22T04:16:45;100969.75;;;29.35;50.64
45813;BME280;31519;45.408;10.962;2023-06-22T04:19:14;100966.59;;;29.56;50.26
45813;BME280;31519;45.408;10.962;2023-06-22T04:21:45;100963.59;;;29.50;50.55
45813;BME280;31519;45.408;10.962;2023-06-22T04:24:16;100966.34;;;29.50;50.18
45813;BME280;31519;45.408;10.962;2023-06-22T04:26:44;100964.66;;;29.37;50.29
45813;BME280;31519;45.408;10.962;2023-06-22T04:29:16;100957.03;;;29.44;50.15
45813;BME280;31519;45.408;10.962;2023-06-22T04:31:44;100949.22;;;29.63;49.35
45813;BME280;31519;45.408;10.962;2023-06-22T04:34:12;100959.72;;;29.68;49.35
45813;BME280;31519;45.408;10.962;2023-06-22T04:36:44;100965.00;;;29.59;49.86
45813;BME280;31519;45.408;10.962;2023-06-22T04:39:13;100962.47;;;29.68;49.20
45813;BME280;31519;45.408;10.962;2023-06-22T04:41:41;100964.34;;;29.71;49.52
45813;BME280;31519;45.408;10.962;2023-06-22T04:44:17;100963.88;;;29.96;48.98
45813;BME280;31519;45.408;10.962;2023-06-22T04:46:54;100968.38;;;29.86;49.04
45813;BME280;31519;45.408;10.962;2023-06-22T04:49:29;100969.50;;;29.88;49.19
45813;BME280;31519;45.408;10.962;2023-06-22T04:52:05;100975.28;;;29.94;49.09
45813;BME280;31519;45.408;10.962;2023-06-22T04:54:35;100966.97;;;29.78;49.84
45813;BME280;31519;45.408;10.962;2023-06-22T04:57:06;100966.47;;;30.38;48.47
45813;BME280;31519;45.408;10.962;2023-06-22T04:59:38;100962.75;;;30.29;48.97
45813;BME280;31519;45.408;10.962;2023-06-22T05:02:09;100960.69;;;30.33;48.48
45813;BME280;31519;45.408;10.962;2023-06-22T05:04:38;100969.16;;;30.06;49.47
45813;BME280;31519;45.408;10.962;2023-06-22T05:07:07;100965.34;;;30.36;49.17
45813;BME280;31519;45.408;10.962;2023-06-22T05:09:36;100973.81;;;30.25;49.06
45813;BME280;31519;45.408;10.962;2023-06-22T05:12:04;100971.81;;;30.46;48.74
45813;BME280;31519;45.408;10.962;2023-06-22T05:14:35;100975.63;;;30.32;49.11
45813;BME280;31519;45.408;10.962;2023-06-22T05:17:03;100968.81;;;30.56;48.17
45813;BME280;31519;45.408;10.962;2023-06-22T05:19:32;100967.59;;;30.57;48.06
45813;BME280;31519;45.408;10.962;2023-06-22T05:22:02;100966.63;;;30.31;49.02
45813;BME280;31519;45.408;10.962;2023-06-22T05:24:30;100960.00;;;30.29;48.88
45813;BME280;31519;45.408;10.962;2023-06-22T05:26:58;100962.03;;;30.77;48.69
45813;BME280;31519;45.408;10.962;2023-06-22T05:29:26;100956.75;;;30.99;47.74
45813;BME280;31519;45.408;10.962;2023-06-22T05:31:54;100971.66;;;31.01;47.89
45813;BME280;31519;45.408;10.962;2023-06-22T05:34:23;100975.94;;;31.18;47.56
45813;BME280;31519;45.408;10.962;2023-06-22T05:36:51;100973.16;;;31.35;47.20
45813;BME280;31519;45.408;10.962;2023-06-22T05:39:19;100969.53;;;31.21;47.33
45813;BME280;31519;45.408;10.962;2023-06-22T05:41:47;100969.16;;;31.36;46.91
45813;BME280;31519;45.408;10.962;2023-06-22T05:44:15;100962.88;;;31.35;46.90
45813;BME280;31519;45.408;10.962;2023-06-22T05:46:44;100970.56;;;31.28;46.94
45813;BME280;31519;45.408;10.962;2023-06-22T05:49:14;100963.69;;;31.64;46.38
45813;BME280;31519;45.408;10.962;2023-06-22T05:51:43;100970.38;;;31.63;46.34
45813;BME280;31519;45.408;10.962;2023-06-22T05:54:11;100972.50;;;31.72;46.27
45813;BME280;31519;45.408;10.962;2023-06-22T05:56:41;100970.88;;;31.75;46.76
45813;BME280;31519;45.408;10.962;2023-06-22T05:59:09;100961.81;;;31.00;47.41
45813;BME280;31519;45.408;10.962;2023-06-22T06:01:37;100960.59;;;31.17;46.87
45813;BME280;31519;45.408;10.962;2023-06-22T06:04:08;100956.09;;;30.78;47.87
45813;BME280;31519;45.408;10.962;2023-06-22T06:06:36;100963.22;;;30.76;48.18
45813;BME280;31519;45.408;10.962;2023-06-22T06:09:05;100957.28;;;31.10;47.23
45813;BME280;31519;45.408;10.962;2023-06-22T06:11:35;100956.91;;;31.53;46.86
45813;BME280;31519;45.408;10.962;2023-06-22T06:14:03;100963.13;;;31.57;46.80
45813;BME280;31519;45.408;10.962;2023-06-22T06:16:32;100959.88;;;31.87;46.24
45813;BME280;31519;45.408;10.962;2023-06-22T06:19:00;100958.31;;;31.86;45.84
45813;BME280;31519;45.408;10.962;2023-06-22T06:21:28;100964.88;;;31.63;46.25
45813;BME280;31519;45.408;10.962;2023-06-22T06:23:58;100969.44;;;31.70;46.06
45813;BME280;31519;45.408;10.962;2023-06-22T06:26:26;100966.38;;;31.52;46.30
45813;BME280;31519;45.408;10.962;2023-06-22T06:29:01;100964.06;;;32.04;45.64
45813;BME280;31519;45.408;10.962;2023-06-22T06:31:30;100964.63;;;32.50;44.54
45813;BME280;31519;45.408;10.962;2023-06-22T06:33:58;100972.94;;;32.25;44.23
45813;BME280;31519;45.408;10.962;2023-06-22T06:36:26;100968.25;;;31.84;44.80
45813;BME280;31519;45.408;10.962;2023-06-22T06:38:54;100965.59;;;31.51;47.32
45813;BME280;31519;45.408;10.962;2023-06-22T06:41:23;100960.25;;;31.60;47.73
45813;BME280;31519;45.408;10.962;2023-06-22T06:43:51;100968.63;;;31.57;48.15
45813;BME280;31519;45.408;10.962;2023-06-22T06:46:19;100965.25;;;31.78;48.43
45813;BME280;31519;45.408;10.962;2023-06-22T06:48:47;100970.28;;;31.38;49.54
45813;BME280;31519;45.408;10.962;2023-06-22T06:51:15;100965.38;;;31.01;50.78
45813;BME280;31519;45.408;10.962;2023-06-22T06:53:44;100982.22;;;31.48;49.89
45813;BME280;31519;45.408;10.962;2023-06-22T06:56:12;100973.22;;;31.02;51.43
45813;BME280;31519;45.408;10.962;2023-06-22T06:58:41;100966.50;;;31.32;51.12
45813;BME280;31519;45.408;10.962;2023-06-22T07:01:13;100967.84;;;30.95;51.53
45813;BME280;31519;45.408;10.962;2023-06-22T07:03:41;100968.03;;;31.04;51.87
45813;BME280;31519;45.408;10.962;2023-06-22T07:06:09;100970.31;;;31.51;50.37
45813;BME280;31519;45.408;10.962;2023-06-22T07:08:38;100957.09;;;31.46;50.23
45813;BME280;31519;45.408;10.962;2023-06-22T07:11:07;100951.13;;;31.76;49.89
45813;BME280;31519;45.408;10.962;2023-06-22T07:13:36;100941.63;;;31.64;49.83
45813;BME280;31519;45.408;10.962;2023-06-22T07:16:04;100940.88;;;31.64;50.56
45813;BME280;31519;45.408;10.962;2023-06-22T07:18:32;100942.66;;;31.83;49.81
45813;BME280;31519;45.408;10.962;2023-06-22T07:21:00;100948.91;;;32.13;49.10
45813;BME280;31519;45.408;10.962;2023-06-22T07:23:29;100953.94;;;31.89;49.43
45813;BME280;31519;45.408;10.962;2023-06-22T07:25:56;100949.38;;;31.70;49.73
45813;BME280;31519;45.408;10.962;2023-06-22T07:28:25;100953.63;;;31.29;50.24
45813;BME280;31519;45.408;10.962;2023-06-22T07:30:53;100949.63;;;31.88;49.58
45813;BME280;31519;45.408;10.962;2023-06-22T07:33:21;100954.75;;;31.44;50.63
45813;BME280;31519;45.408;10.962;2023-06-22T07:35:49;100954.88;;;31.41;51.05
45813;BME280;31519;45.408;10.962;2023-06-22T07:38:20;100956.97;;;31.78;49.75
45813;BME280;31519;45.408;10.962;2023-06-22T07:40:48;100953.41;;;31.36;51.08
45813;BME280;31519;45.408;10.962;2023-06-22T07:43:16;100941.94;;;32.08;49.30
45813;BME280;31519;45.408;10.962;2023-06-22T07:45:53;100940.16;;;32.01;48.38
45813;BME280;31519;45.408;10.962;2023-06-22T07:48:22;100940.81;;;32.56;47.71
45813;BME280;31519;45.408;10.962;2023-06-22T07:50:50;100949.13;;;32.43;46.80
45813;BME280;31519;45.408;10.962;2023-06-22T07:53:18;100943.28;;;32.16;47.36
45813;BME280;31519;45.408;10.962;2023-06-22T07:55:46;100948.69;;;32.20;47.26
45813;BME280;31519;45.408;10.962;2023-06-22T07:58:17;100944.91;;;32.64;44.63
45813;BME280;31519;45.408;10.962;2023-06-22T08:00:46;100946.22;;;32.72;44.23
45813;BME280;31519;45.408;10.962;2023-06-22T08:03:16;100958.13;;;32.57;44.63
45813;BME280;31519;45.408;10.962;2023-06-22T08:05:45;100948.78;;;32.41;44.39
45813;BME280;31519;45.408;10.962;2023-06-22T08:08:13;100953.06;;;32.55;44.74
45813;BME280;31519;45.408;10.962;2023-06-22T08:10:42;100960.09;;;32.05;45.90
45813;BME280;31519;45.408;10.962;2023-06-22T08:13:10;100955.28;;;32.47;45.59
45813;BME280;31519;45.408;10.962;2023-06-22T08:15:38;100958.50;;;32.33;46.31
45813;BME280;31519;45.408;10.962;2023-06-22T08:18:07;100956.47;;;32.59;46.03
45813;BME280;31519;45.408;10.962;2023-06-22T08:20:35;100960.25;;;32.40;46.12
45813;BME280;31519;45.408;10.962;2023-06-22T08:23:03;100958.94;;;32.44;45.67
45813;BME280;31519;45.408;10.962;2023-06-22T08:25:34;100953.53;;;32.66;45.58
45813;BME280;31519;45.408;10.962;2023-06-22T08:28:03;100959.03;;;33.01;44.89
45813;BME280;31519;45.408;10.962;2023-06-22T08:30:32;100954.59;;;33.16;44.42
45813;BME280;31519;45.408;10.962;2023-06-22T08:33:00;100956.44;;;33.31;43.66
45813;BME280;31519;45.408;10.962;2023-06-22T08:35:28;100955.03;;;33.27;43.52
45813;BME280;31519;45.408;10.962;2023-06-22T08:37:57;100947.22;;;33.56;43.13
45813;BME280;31519;45.408;10.962;2023-06-22T08:40:25;100955.56;;;33.65;43.40
45813;BME280;31519;45.408;10.962;2023-06-22T08:42:53;100945.78;;;33.08;44.27
45813;BME280;31519;45.408;10.962;2023-06-22T08:45:21;100944.28;;;33.72;43.70
45813;BME280;31519;45.408;10.962;2023-06-22T08:47:49;100943.66;;;32.78;45.81
45813;BME280;31519;45.408;10.962;2023-06-22T08:50:18;100944.69;;;33.06;45.69
45813;BME280;31519;45.408;10.962;2023-06-22T08:52:46;100947.38;;;33.31;44.90
45813;BME280;31519;45.408;10.962;2023-06-22T08:55:14;100946.09;;;33.97;43.87
45813;BME280;31519;45.408;10.962;2023-06-22T08:57:42;100945.59;;;34.20;42.79
45813;BME280;31519;45.408;10.962;2023-06-22T09:00:11;100943.91;;;33.92;43.33
45813;BME280;31519;45.408;10.962;2023-06-22T09:02:46;100939.25;;;33.15;45.13
45813;BME280;31519;45.408;10.962;2023-06-22T09:05:14;100935.22;;;34.03;42.71
45813;BME280;31519;45.408;10.962;2023-06-22T09:07:43;100936.75;;;33.51;43.67
45813;BME280;31519;45.408;10.962;2023-06-22T09:10:11;100941.75;;;33.65;43.71
45813;BME280;31519;45.408;10.962;2023-06-22T09:12:39;100937.03;;;33.97;42.88
45813;BME280;31519;45.408;10.962;2023-06-22T09:15:08;100936.31;;;34.36;42.07
45813;BME280;31519;45.408;10.962;2023-06-22T09:17:42;100933.75;;;34.60;41.08
45813;BME280;31519;45.408;10.962;2023-06-22T09:20:11;100931.97;;;33.95;42.32
45813;BME280;31519;45.408;10.962;2023-06-22T09:22:39;100927.41;;;34.10;42.42
45813;BME280;31519;45.408;10.962;2023-06-22T09:25:08;100932.00;;;34.04;42.57
45813;BME280;31519;45.408;10.962;2023-06-22T09:27:36;100930.09;;;35.08;41.37
45813;BME280;31519;45.408;10.962;2023-06-22T09:30:05;100927.19;;;35.30;40.50
45813;BME280;31519;45.408;10.962;2023-06-22T09:32:33;100919.03;;;35.36;40.85
45813;BME280;31519;45.408;10.962;2023-06-22T09:35:05;100922.22;;;35.52;40.52
45813;BME280;31519;45.408;10.962;2023-06-22T09:37:34;100925.94;;;35.13;41.18
45813;BME280;31519;45.408;10.962;2023-06-22T09:40:02;100923.66;;;35.21;41.09
45813;BME280;31519;45.408;10.962;2023-06-22T09:42:36;100917.03;;;34.91;39.75
45813;BME280;31519;45.408;10.962;2023-06-22T09:45:05;100913.78;;;35.47;39.64
45813;BME280;31519;45.408;10.962;2023-06-22T09:47:33;100911.75;;;35.56;38.28
45813;BME280;31519;45.408;10.962;2023-06-22T09:50:01;100912.56;;;35.30;38.62
45813;BME280;31519;45.408;10.962;2023-06-22T09:52:29;100896.88;;;35.27;38.51
45813;BME280;31519;45.408;10.962;2023-06-22T09:55:14;100888.97;;;35.43;37.52
45813;BME280;31519;45.408;10.962;2023-06-22T09:57:44;100884.22;;;34.53;39.03
45813;BME280;31519;45.408;10.962;2023-06-22T10:00:13;100879.94;;;34.97;39.19
45813;BME280;31519;45.408;10.962;2023-06-22T10:02:43;100877.63;;;35.14;38.12
45813;BME280;31519;45.408;10.962;2023-06-22T10:05:12;100873.56;;;35.61;37.85
45813;BME280;31519;45.408;10.962;2023-06-22T10:07:40;100871.19;;;36.10;36.82
45813;BME280;31519;45.408;10.962;2023-06-22T10:10:12;100871.47;;;36.45;36.91
45813;BME280;31519;45.408;10.962;2023-06-22T10:12:44;100863.22;;;36.03;36.32
45813;BME280;31519;45.408;10.962;2023-06-22T10:15:13;100854.16;;;36.74;35.61
45813;BME280;31519;45.408;10.962;2023-06-22T10:17:42;100849.69;;;37.06;34.63
45813;BME280;31519;45.408;10.962;2023-06-22T10:20:10;100848.28;;;37.54;34.37
45813;BME280;31519;45.408;10.962;2023-06-22T10:22:42;100841.44;;;37.70;33.95
45813;BME280;31519;45.408;10.962;2023-06-22T10:25:12;100848.88;;;37.93;33.63
45813;BME280;31519;45.408;10.962;2023-06-22T10:27:41;100847.53;;;37.89;33.61
45813;BME280;31519;45.408;10.962;2023-06-22T10:30:10;100858.50;;;37.63;33.43
45813;BME280;31519;45.408;10.962;2023-06-22T10:32:42;100852.47;;;37.64;33.51
45813;BME280;31519;45.408;10.962;2023-06-22T10:35:11;100839.38;;;37.21;33.88
45813;BME280;31519;45.408;10.962;2023-06-22T10:37:43;100846.03;;;36.47;35.75
45813;BME280;31519;45.408;10.962;2023-06-22T10:40:13;100845.88;;;37.47;34.85
45813;BME280;31519;45.408;10.962;2023-06-22T10:42:42;100840.59;;;37.64;34.31
45813;BME280;31519;45.408;10.962;2023-06-22T10:45:10;100838.63;;;37.85;34.09
45813;BME280;31519;45.408;10.962;2023-06-22T10:47:39;100843.97;;;37.24;34.50
45813;BME280;31519;45.408;10.962;2023-06-22T10:50:07;100831.78;;;37.36;34.70
45813;BME280;31519;45.408;10.962;2023-06-22T10:52:35;100839.13;;;36.95;36.10
45813;BME280;31519;45.408;10.962;2023-06-22T10:55:04;100836.38;;;36.57;36.62
45813;BME280;31519;45.408;10.962;2023-06-22T10:57:32;100841.72;;;36.84;35.89
45813;BME280;31519;45.408;10.962;2023-06-22T11:00:00;100845.56;;;36.24;36.89
45813;BME280;31519;45.408;10.962;2023-06-22T11:02:29;100841.69;;;36.46;36.66
45813;BME280;31519;45.408;10.962;2023-06-22T11:04:57;100832.75;;;37.33;35.18
45813;BME280;31519;45.408;10.962;2023-06-22T11:07:29;100846.41;;;36.78;35.86
45813;BME280;31519;45.408;10.962;2023-06-22T11:09:57;100840.66;;;36.81;35.19
45813;BME280;31519;45.408;10.962;2023-06-22T11:12:25;100839.81;;;36.90;34.82
45813;BME280;31519;45.408;10.962;2023-06-22T11:14:53;100840.81;;;36.63;34.61
45813;BME280;31519;45.408;10.962;2023-06-22T11:17:23;100837.31;;;36.92;34.25
45813;BME280;31519;45.408;10.962;2023-06-22T11:19:51;100839.78;;;36.13;34.65
45813;BME280;31519;45.408;10.962;2023-06-22T11:22:20;100832.03;;;36.17;35.18
45813;BME280;31519;45.408;10.962;2023-06-22T11:24:48;100833.34;;;37.08;33.27
45813;BME280;31519;45.408;10.962;2023-06-22T11:27:16;100827.59;;;37.26;33.55
45813;BME280;31519;45.408;10.962;2023-06-22T11:29:44;100823.59;;;37.12;33.30
45813;BME280;31519;45.408;10.962;2023-06-22T11:32:13;100817.63;;;37.19;32.77
45813;BME280;31519;45.408;10.962;2023-06-22T11:34:42;100822.78;;;36.97;34.30
45813;BME280;31519;45.408;10.962;2023-06-22T11:37:10;100816.56;;;37.02;34.83
45813;BME280;31519;45.408;10.962;2023-06-22T11:39:38;100810.22;;;37.46;33.15
45813;BME280;31519;45.408;10.962;2023-06-22T11:42:15;100803.22;;;37.36;33.18
45813;BME280;31519;45.408;10.962;2023-06-22T11:44:43;100800.84;;;37.78;32.91
45813;BME280;31519;45.408;10.962;2023-06-22T11:47:12;100794.31;;;37.32;34.98
45813;BME280;31519;45.408;10.962;2023-06-22T11:49:41;100794.53;;;37.28;34.78
45813;BME280;31519;45.408;10.962;2023-06-22T11:52:09;100796.66;;;37.68;34.31
45813;BME280;31519;45.408;10.962;2023-06-22T11:54:37;100792.03;;;37.30;34.89
45813;BME280;31519;45.408;10.962;2023-06-22T11:57:06;100789.97;;;37.45;34.03
45813;BME280;31519;45.408;10.962;2023-06-22T11:59:34;100786.00;;;36.88;34.95
45813;BME280;31519;45.408;10.962;2023-06-22T12:02:03;100780.88;;;36.57;35.76
45813;BME280;31519;45.408;10.962;2023-06-22T12:04:33;100772.56;;;36.18;35.82
45813;BME280;31519;45.408;10.962;2023-06-22T12:07:01;100775.94;;;37.19;34.33
45813;BME280;31519;45.408;10.962;2023-06-22T12:09:30;100772.16;;;37.66;33.72
45813;BME280;31519;45.408;10.962;2023-06-22T12:11:58;100768.72;;;37.57;33.82
45813;BME280;31519;45.408;10.962;2023-06-22T12:14:26;100771.22;;;37.40;33.85
45813;BME280;31519;45.408;10.962;2023-06-22T12:16:57;100761.28;;;37.04;34.52
45813;BME280;31519;45.408;10.962;2023-06-22T12:19:25;100758.34;;;38.12;33.55
45813;BME280;31519;45.408;10.962;2023-06-22T12:21:53;100754.97;;;39.00;31.94
45813;BME280;31519;45.408;10.962;2023-06-22T12:24:21;100748.88;;;38.04;32.81
45813;BME280;31519;45.408;10.962;2023-06-22T12:26:50;100749.38;;;38.03;33.21
45813;BME280;31519;45.408;10.962;2023-06-22T12:29:20;100745.59;;;38.72;32.20
45813;BME280;31519;45.408;10.962;2023-06-22T12:31:49;100742.69;;;39.18;31.35
45813;BME280;31519;45.408;10.962;2023-06-22T12:34:17;100741.13;;;39.49;30.57
45813;BME280;31519;45.408;10.962;2023-06-22T12:36:45;100740.06;;;39.04;31.09
45813;BME280;31519;45.408;10.962;2023-06-22T12:39:15;100731.03;;;40.05;30.57
45813;BME280;31519;45.408;10.962;2023-06-22T12:41:44;100727.81;;;40.40;30.79
45813;BME280;31519;45.408;10.962;2023-06-22T12:44:12;100716.91;;;40.47;31.08
45813;BME280;31519;45.408;10.962;2023-06-22T12:46:40;100718.19;;;40.57;30.66
45813;BME280;31519;45.408;10.962;2023-06-22T12:49:08;100719.69;;;40.25;30.43
45813;BME280;31519;45.408;10.962;2023-06-22T12:51:40;100716.72;;;40.62;29.86
45813;BME280;31519;45.408;10.962;2023-06-22T12:54:10;100717.47;;;40.62;29.80
45813;BME280;31519;45.408;10.962;2023-06-22T12:56:39;100719.00;;;40.63;29.69
45813;BME280;31519;45.408;10.962;2023-06-22T12:59:07;100717.75;;;40.70;29.49